Time;durP1;ratioP1;P1;durP2;ratioP2;P2;SDS_P1;SDS_P2;PMS_P1;PMS_P2;Temp;Humidity;BMP_temperature;BMP_pressure;BME280_temperature;BME280_humidity;BME280_pressure;Samples;Min_cycle;Max_cycle;Signal;HPM_P1;HPM_P2
2022/04/17 00:01:02;;;;;;;4.97;3.33;;;3.30;99.90;;;;;;5027132;28;20211;-79
2022/04/17 00:03:28;;;;;;;6.73;3.77;;;3.20;99.90;;;;;;5010134;28;20273;-79
2022/04/17 00:05:55;;;;;;;4.87;3.53;;;3.20;99.90;;;;;;5010707;28;20194;-79
2022/04/17 00:08:20;;;;;;;5.53;3.40;;;3.20;99.90;;;;;;5010379;28;20236;-79
2022/04/17 00:10:49;;;;;;;4.00;2.83;;;3.20;99.90;;;;;;5028170;28;20191;-79
2022/04/17 00:13:15;;;;;;;3.77;2.87;;;3.20;99.90;;;;;;5028689;28;20179;-79
2022/04/17 00:15:41;;;;;;;4.00;2.67;;;3.10;99.90;;;;;;5027976;28;21065;-79
2022/04/17 00:18:08;;;;;;;3.90;2.73;;;3.10;99.90;;;;;;5028385;28;20182;-79
2022/04/17 00:20:34;;;;;;;4.20;2.80;;;3.10;99.90;;;;;;5009608;28;20214;-79
2022/04/17 00:22:59;;;;;;;3.80;2.40;;;3.10;99.90;;;;;;5009877;28;20198;-78
2022/04/17 00:25:25;;;;;;;4.83;2.60;;;3.10;99.90;;;;;;5028328;28;20193;-79
2022/04/17 00:27:50;;;;;;;2.70;2.43;;;3.10;99.90;;;;;;5009482;28;20310;-79
2022/04/17 00:30:16;;;;;;;2.87;2.20;;;3.10;99.90;;;;;;5010005;28;20207;-78
2022/04/17 00:32:42;;;;;;;3.43;2.60;;;3.00;99.90;;;;;;5027972;28;20214;-78
2022/04/17 00:35:09;;;;;;;4.13;2.60;;;3.00;99.90;;;;;;5009948;28;20215;-79
2022/04/17 00:37:34;;;;;;;4.30;2.90;;;2.90;99.90;;;;;;5010010;28;20187;-79
2022/04/17 00:40:01;;;;;;;4.40;3.07;;;2.90;99.90;;;;;;5009791;28;20553;-79
2022/04/17 00:42:26;;;;;;;3.17;2.53;;;2.80;99.90;;;;;;5027424;28;20721;-80
2022/04/17 00:44:52;;;;;;;4.23;2.93;;;2.70;99.90;;;;;;5026987;28;20277;-79
2022/04/17 00:47:18;;;;;;;3.83;2.53;;;2.70;99.90;;;;;;5009992;28;20559;-78
2022/04/17 00:49:47;;;;;;;4.17;2.80;;;2.80;99.90;;;;;;5009698;28;21239;-78
2022/04/17 00:52:14;;;;;;;3.93;2.60;;;2.70;99.90;;;;;;5028636;28;20175;-78
2022/04/17 00:54:45;;;;;;;3.93;2.53;;;2.80;99.90;;;;;;5009744;28;20278;-79
2022/04/17 00:57:13;;;;;;;3.23;2.50;;;2.80;99.90;;;;;;5028263;28;20178;-79
2022/04/17 00:59:42;;;;;;;3.90;2.83;;;2.80;99.90;;;;;;5027691;28;20265;-78
2022/04/17 01:02:09;;;;;;;8.73;3.90;;;2.80;99.90;;;;;;5026182;28;20355;-79
2022/04/17 01:04:36;;;;;;;6.30;3.63;;;2.70;99.90;;;;;;5027397;28;20183;-79
2022/04/17 01:07:02;;;;;;;7.03;3.80;;;2.70;99.90;;;;;;5009946;28;20241;-78
2022/04/17 01:09:29;;;;;;;6.03;3.70;;;2.70;99.90;;;;;;5026828;28;20670;-78
2022/04/17 01:11:55;;;;;;;5.33;3.17;;;2.50;99.90;;;;;;5028159;28;20187;-78
2022/04/17 01:14:21;;;;;;;3.90;2.87;;;2.50;99.90;;;;;;5009563;28;20206;-78
2022/04/17 01:16:47;;;;;;;3.47;2.93;;;2.30;99.90;;;;;;5009380;28;20213;-78
2022/04/17 01:19:13;;;;;;;5.27;2.87;;;2.30;99.90;;;;;;5009653;28;20187;-78
2022/04/17 01:21:40;;;;;;;3.10;2.40;;;2.30;99.90;;;;;;5009289;28;20210;-78
2022/04/17 01:26:59;;;;;;;4.77;2.43;;;2.50;99.90;;;;;;5027832;28;20245;-79
2022/04/17 01:29:36;;;;;;;3.83;3.00;;;2.60;99.90;;;;;;5008736;28;20316;-78
2022/04/17 01:32:07;;;;;;;3.43;2.43;;;2.50;99.90;;;;;;5008839;28;21375;-79
2022/04/17 01:34:33;;;;;;;2.23;1.90;;;2.50;99.90;;;;;;5008562;28;20175;-78
2022/04/17 01:37:00;;;;;;;5.30;2.40;;;2.50;99.90;;;;;;5008813;28;20293;-78
2022/04/17 01:39:26;;;;;;;4.03;2.70;;;2.40;99.90;;;;;;5026425;28;20328;-79
2022/04/17 01:41:54;;;;;;;3.67;2.30;;;2.30;99.90;;;;;;5025198;28;20273;-78
2022/04/17 01:44:20;;;;;;;4.23;2.63;;;2.40;99.90;;;;;;5026509;28;20194;-78
2022/04/17 01:46:46;;;;;;;5.90;3.27;;;2.40;99.90;;;;;;5008942;28;20186;-78
2022/04/17 01:49:16;;;;;;;8.63;3.50;;;2.40;99.90;;;;;;5008517;28;20276;-78
2022/04/17 01:51:43;;;;;;;6.13;2.97;;;2.30;99.90;;;;;;5026741;28;20187;-78
2022/04/17 01:54:11;;;;;;;4.77;2.90;;;2.30;99.90;;;;;;5008955;28;20786;-78
2022/04/17 01:56:38;;;;;;;3.33;2.53;;;2.20;99.90;;;;;;5008650;28;20649;-78
2022/04/17 01:59:05;;;;;;;4.13;2.63;;;2.10;99.90;;;;;;5008366;28;20197;-78
2022/04/17 02:01:32;;;;;;;4.43;2.63;;;2.10;99.90;;;;;;5009035;28;20187;-79
2022/04/17 02:03:58;;;;;;;6.10;3.27;;;2.00;99.90;;;;;;5026186;28;20194;-78
2022/04/17 02:06:24;;;;;;;5.57;3.07;;;1.90;99.90;;;;;;5025268;28;20641;-78
2022/04/17 02:08:51;;;;;;;4.70;2.70;;;1.90;99.90;;;;;;5008654;28;20217;-78
2022/04/17 02:11:20;;;;;;;3.47;2.60;;;1.80;99.90;;;;;;5008635;28;20255;-78
2022/04/17 02:13:47;;;;;;;3.90;2.60;;;1.80;99.90;;;;;;5008676;28;20190;-78
2022/04/17 02:16:13;;;;;;;5.57;2.80;;;1.80;99.90;;;;;;5025856;28;20353;-78
2022/04/17 02:18:39;;;;;;;4.40;2.77;;;1.80;99.90;;;;;;5026607;28;20205;-78
2022/04/17 02:21:04;;;;;;;3.73;2.50;;;1.70;99.90;;;;;;5026701;28;20202;-78
2022/04/17 02:23:30;;;;;;;2.77;2.43;;;1.70;99.90;;;;;;5008440;28;20183;-78
2022/04/17 02:25:56;;;;;;;4.30;2.70;;;1.70;99.90;;;;;;5008937;28;20191;-79
2022/04/17 02:28:21;;;;;;;4.63;2.60;;;1.60;99.90;;;;;;5025991;28;20224;-79
2022/04/17 02:30:47;;;;;;;7.53;3.13;;;1.60;99.90;;;;;;5008443;28;20703;-78
2022/04/17 02:33:12;;;;;;;15.97;7.07;;;1.50;99.90;;;;;;5008156;28;20183;-78
2022/04/17 02:35:38;;;;;;;18.93;8.47;;;1.40;99.90;;;;;;5008185;28;20194;-78
2022/04/17 02:38:04;;;;;;;20.90;7.77;;;1.30;99.90;;;;;;5008826;28;20683;-78
2022/04/17 02:40:30;;;;;;;17.67;6.10;;;1.30;99.90;;;;;;5025899;28;20201;-79
2022/04/17 02:42:57;;;;;;;15.47;6.20;;;1.30;99.90;;;;;;5025827;28;20189;-78
2022/04/17 02:45:22;;;;;;;4.97;2.67;;;1.40;99.90;;;;;;5008214;28;20245;-78
2022/04/17 02:47:51;;;;;;;4.20;2.10;;;1.40;99.90;;;;;;5025626;28;20187;-78
2022/04/17 02:50:18;;;;;;;4.63;2.43;;;1.30;99.90;;;;;;5008261;28;20242;-78
2022/04/17 02:52:45;;;;;;;3.17;2.43;;;1.20;99.90;;;;;;5026401;28;20562;-78
2022/04/17 02:55:11;;;;;;;5.57;2.60;;;1.30;99.90;;;;;;5007601;28;20205;-78
2022/04/17 02:57:37;;;;;;;5.50;3.00;;;1.30;99.90;;;;;;5025825;28;20237;-80
2022/04/17 03:00:08;;;;;;;5.27;2.47;;;1.30;99.90;;;;;;5007859;28;20731;-78
2022/04/17 03:05:39;;;;;;;5.57;2.93;;;1.20;99.90;;;;;;5029043;28;20186;-78
2022/04/17 03:08:12;;;;;;;3.07;2.13;;;1.10;99.90;;;;;;5011357;28;20198;-78
2022/04/17 03:10:39;;;;;;;5.97;2.70;;;1.10;99.90;;;;;;5010930;28;20596;-78
2022/04/17 03:13:05;;;;;;;4.33;2.40;;;1.10;99.90;;;;;;5011568;28;20212;-77
2022/04/17 03:15:32;;;;;;;3.53;2.33;;;1.00;99.90;;;;;;5029410;28;20186;-78
2022/04/17 03:17:59;;;;;;;4.73;2.53;;;0.90;99.90;;;;;;5026965;28;20638;-78
2022/04/17 03:20:28;;;;;;;6.63;3.17;;;0.90;99.90;;;;;;5028186;28;20210;-77
2022/04/17 03:22:54;;;;;;;7.70;3.20;;;0.90;99.90;;;;;;5010850;28;20213;-77
2022/04/17 03:25:20;;;;;;;5.73;3.07;;;0.80;99.90;;;;;;5011958;28;20251;-77
2022/04/17 03:27:46;;;;;;;6.83;3.33;;;0.80;99.90;;;;;;5011334;28;20279;-78
2022/04/17 03:30:17;;;;;;;8.90;3.27;;;0.80;99.90;;;;;;5027937;28;20221;-77
2022/04/17 03:32:48;;;;;;;5.17;3.20;;;0.90;99.90;;;;;;5010340;28;20187;-78
2022/04/17 03:35:14;;;;;;;5.80;2.87;;;0.80;99.90;;;;;;5030105;28;20198;-77
2022/04/17 03:37:44;;;;;;;4.93;2.43;;;0.80;99.90;;;;;;5029936;28;20182;-78
2022/04/17 03:40:11;;;;;;;6.40;2.67;;;0.70;99.90;;;;;;5012131;28;20614;-78
2022/04/17 03:42:38;;;;;;;4.63;2.50;;;0.70;99.90;;;;;;5029902;28;20668;-79
2022/04/17 03:45:06;;;;;;;4.57;2.57;;;0.60;99.90;;;;;;5012421;28;20198;-77
2022/04/17 03:47:32;;;;;;;12.33;4.73;;;0.70;99.90;;;;;;5030136;28;20191;-78
2022/04/17 03:49:58;;;;;;;9.30;4.37;;;0.70;99.90;;;;;;5030378;28;20756;-78
2022/04/17 03:52:24;;;;;;;8.33;4.37;;;0.70;99.90;;;;;;5030195;28;20182;-78
2022/04/17 03:54:49;;;;;;;8.93;4.50;;;0.70;99.90;;;;;;5012753;28;20680;-77
2022/04/17 03:57:15;;;;;;;7.93;3.63;;;0.50;99.90;;;;;;5029738;28;20233;-78
2022/04/17 03:59:41;;;;;;;6.13;3.73;;;0.50;99.90;;;;;;5030162;28;20261;-78
2022/04/17 04:02:07;;;;;;;8.03;3.60;;;0.40;99.90;;;;;;5030019;28;20191;-79
2022/04/17 04:04:33;;;;;;;8.33;3.63;;;0.50;99.90;;;;;;5012025;28;20273;-78
2022/04/17 04:06:59;;;;;;;5.53;2.70;;;0.50;99.90;;;;;;5030091;28;20237;-79
2022/04/17 04:09:25;;;;;;;6.40;3.50;;;0.50;99.90;;;;;;5011641;28;20265;-78
2022/04/17 04:11:50;;;;;;;5.60;3.33;;;0.50;99.90;;;;;;5029962;28;20181;-79
2022/04/17 04:14:16;;;;;;;4.20;3.10;;;0.50;99.90;;;;;;5028973;28;20183;-77
2022/04/17 04:16:41;;;;;;;7.30;3.40;;;0.50;99.90;;;;;;5011994;28;20665;-79
2022/04/17 04:19:08;;;;;;;7.03;3.47;;;0.50;99.90;;;;;;5028862;28;20193;-78
2022/04/17 04:21:47;;;;;;;6.40;3.67;;;0.50;99.90;;;;;;5029444;28;20183;-77
2022/04/17 04:24:14;;;;;;;5.07;3.20;;;0.50;99.90;;;;;;5011667;28;20175;-78
2022/04/17 04:26:42;;;;;;;6.27;3.83;;;0.50;99.90;;;;;;5029202;28;20197;-78
2022/04/17 04:29:07;;;;;;;6.63;3.93;;;0.50;99.90;;;;;;5027315;28;20198;-79
2022/04/17 04:31:33;;;;;;;4.70;3.00;;;0.50;99.90;;;;;;5011691;28;20559;-78
2022/04/17 04:33:58;;;;;;;6.43;3.50;;;0.50;99.90;;;;;;5011229;28;20187;-79
2022/04/17 04:36:24;;;;;;;9.43;4.23;;;0.60;99.90;;;;;;5010436;28;20222;-78
2022/04/17 04:38:49;;;;;;;7.33;3.80;;;0.60;99.90;;;;;;5027007;28;20183;-79
2022/04/17 04:41:15;;;;;;;7.27;3.83;;;0.60;99.90;;;;;;5029616;28;20206;-78
2022/04/17 04:43:41;;;;;;;8.03;4.27;;;0.60;99.90;;;;;;5011486;28;20302;-78
2022/04/17 04:46:06;;;;;;;7.53;4.23;;;0.70;99.90;;;;;;5028985;28;20202;-78
2022/04/17 04:51:24;;;;;;;9.60;4.43;;;0.70;99.90;;;;;;5028781;28;20281;-78
2022/04/17 04:53:50;;;;;;;6.33;3.90;;;0.90;99.90;;;;;;5010826;28;20270;-78
2022/04/17 04:56:16;;;;;;;5.00;3.90;;;1.00;99.90;;;;;;5010819;28;20288;-79
2022/04/17 04:58:43;;;;;;;7.00;4.23;;;1.20;99.90;;;;;;5010424;28;20186;-78
2022/04/17 05:01:08;;;;;;;7.10;4.30;;;1.20;99.90;;;;;;5010411;28;20221;-77
2022/04/17 05:03:35;;;;;;;7.80;4.57;;;1.30;99.90;;;;;;5010925;28;20183;-78
2022/04/17 05:06:01;;;;;;;9.83;5.30;;;1.50;99.90;;;;;;5027961;28;20246;-79
2022/04/17 05:08:26;;;;;;;8.10;4.90;;;1.60;99.90;;;;;;5028153;28;20680;-79
2022/04/17 05:10:53;;;;;;;6.03;4.13;;;1.70;99.90;;;;;;5010449;28;20203;-79
2022/04/17 05:13:18;;;;;;;10.23;5.00;;;1.80;99.90;;;;;;5010279;28;20183;-78
2022/04/17 05:15:44;;;;;;;7.40;3.50;;;2.10;99.90;;;;;;5010170;28;20707;-80
2022/04/17 05:18:10;;;;;;;6.20;3.80;;;2.30;99.90;;;;;;5010006;28;20183;-80
2022/04/17 05:20:35;;;;;;;6.30;3.47;;;2.90;99.90;;;;;;5027274;28;20198;-79
2022/04/17 05:23:27;;;;;;;5.37;3.50;;;3.90;99.90;;;;;;5010013;28;20183;-79
2022/04/17 05:25:54;;;;;;;7.70;4.00;;;5.00;99.90;;;;;;5025340;28;20554;-79
2022/04/17 05:28:21;;;;;;;6.83;3.27;;;5.80;99.90;;;;;;5028067;28;20211;-81
2022/04/17 05:30:47;;;;;;;5.00;3.50;;;6.50;99.90;;;;;;5010476;28;20202;-80
2022/04/17 05:33:13;;;;;;;5.63;3.60;;;7.10;99.90;;;;;;5026918;28;20241;-80
2022/04/17 05:35:39;;;;;;;4.57;3.50;;;7.60;99.90;;;;;;5026994;28;20252;-80
2022/04/17 05:38:05;;;;;;;4.23;2.93;;;7.80;99.90;;;;;;5027473;28;20183;-80
2022/04/17 05:40:37;;;;;;;4.10;2.80;;;7.90;99.90;;;;;;5009065;28;20328;-80
2022/04/17 05:43:03;;;;;;;6.03;3.30;;;8.10;99.90;;;;;;5009791;28;20178;-79
2022/04/17 05:45:29;;;;;;;5.73;3.23;;;8.30;99.90;;;;;;5025744;28;20266;-79
2022/04/17 05:47:56;;;;;;;5.07;3.30;;;8.60;99.90;;;;;;5008998;28;20326;-80
2022/04/17 05:50:22;;;;;;;4.40;3.25;;;8.60;99.90;;;;;;5026419;28;20242;-80
2022/04/17 05:52:48;;;;;;;3.63;3.00;;;8.70;99.90;;;;;;5027143;28;20656;-80
2022/04/17 05:55:14;;;;;;;4.13;2.83;;;8.60;99.90;;;;;;5025907;28;20203;-80
2022/04/17 05:57:41;;;;;;;3.85;3.00;;;8.80;99.90;;;;;;5028030;28;20552;-79
2022/04/17 06:00:08;;;;;;;6.28;3.38;;;8.90;99.90;;;;;;5010020;28;20240;-79
2022/04/17 06:02:35;;;;;;;3.77;2.90;;;8.20;99.90;;;;;;5009044;28;20187;-79
2022/04/17 06:05:02;;;;;;;4.13;3.27;;;7.60;99.90;;;;;;5009525;28;20198;-79
2022/04/17 06:07:28;;;;;;;3.53;3.00;;;7.60;99.90;;;;;;5029039;28;20191;-80
2022/04/17 06:09:54;;;;;;;4.95;2.90;;;8.10;99.90;;;;;;5010888;28;21143;-80
2022/04/17 06:12:19;;;;;;;3.83;2.40;;;9.00;99.90;;;;;;5010011;28;20183;-80
2022/04/17 06:14:45;;;;;;;3.30;2.50;;;9.50;99.90;;;;;;5010562;28;20193;-79
2022/04/17 06:17:11;;;;;;;2.70;2.30;;;9.80;99.90;;;;;;5010263;28;20182;-80
2022/04/17 06:19:37;;;;;;;3.55;2.50;;;9.90;99.90;;;;;;5009374;28;20703;-80
2022/04/17 06:22:03;;;;;;;2.42;2.20;;;10.40;99.90;;;;;;5009657;28;20273;-80
2022/04/17 06:24:29;;;;;;;3.42;2.30;;;10.60;99.90;;;;;;5025192;28;20672;-79
2022/04/17 06:26:55;;;;;;;4.15;2.60;;;10.50;99.90;;;;;;5027236;28;20198;-79
2022/04/17 06:29:20;;;;;;;4.18;2.15;;;10.40;99.90;;;;;;5008598;28;20209;-80
2022/04/17 06:31:46;;;;;;;4.00;2.47;;;10.10;99.90;;;;;;5009280;28;20274;-79
2022/04/17 06:34:12;;;;;;;2.47;2.28;;;10.10;99.90;;;;;;5008655;28;20264;-80
2022/04/17 06:36:38;;;;;;;2.60;2.22;;;10.30;99.90;;;;;;5024222;28;20206;-80
2022/04/17 06:39:05;;;;;;;3.10;2.07;;;9.80;99.90;;;;;;5024837;28;20190;-79
2022/04/17 06:41:33;;;;;;;3.30;2.13;;;9.20;99.90;;;;;;5028847;28;20179;-78
2022/04/17 06:43:59;;;;;;;2.80;2.20;;;8.40;99.90;;;;;;5009736;28;20279;-81
2022/04/17 06:46:24;;;;;;;3.00;2.40;;;8.10;99.90;;;;;;5027118;28;20338;-79
2022/04/17 06:48:50;;;;;;;2.80;2.30;;;7.80;99.90;;;;;;5008045;28;20203;-77
2022/04/17 06:51:19;;;;;;;3.13;2.20;;;7.50;99.90;;;;;;5007948;28;20195;-80
2022/04/17 06:53:44;;;;;;;3.53;2.50;;;7.50;99.90;;;;;;5008813;28;20262;-78
2022/04/17 06:56:12;;;;;;;2.93;2.23;;;7.60;99.90;;;;;;5008039;28;20273;-78
2022/04/17 06:58:38;;;;;;;2.60;2.40;;;7.80;99.90;;;;;;5026354;28;20187;-82
2022/04/17 07:01:04;;;;;;;3.33;2.63;;;7.80;99.90;;;;;;5008961;28;20763;-80
2022/04/17 07:03:29;;;;;;;3.27;2.13;;;7.80;99.90;;;;;;5025745;28;20195;-78
2022/04/17 07:05:55;;;;;;;3.07;2.20;;;7.80;99.90;;;;;;5007263;28;20186;-78
2022/04/17 07:08:21;;;;;;;2.27;1.83;;;7.60;99.90;;;;;;5006465;28;20194;-79
2022/04/17 07:10:47;;;;;;;3.47;2.53;;;7.50;99.90;;;;;;5007325;28;20203;-79
2022/04/17 07:13:15;;;;;;;3.40;2.17;;;7.60;99.90;;;;;;5025098;28;20179;-78
2022/04/17 07:15:41;;;;;;;2.30;2.10;;;7.70;99.90;;;;;;5008908;28;20221;-79
2022/04/17 07:18:06;;;;;;;3.43;2.40;;;7.70;99.90;;;;;;5026517;28;20182;-78
2022/04/17 07:20:34;;;;;;;2.30;2.10;;;7.80;99.90;;;;;;5009021;28;20195;-80
2022/04/17 07:23:00;;;;;;;2.87;2.33;;;7.90;99.90;;;;;;5008914;28;20241;-79
2022/04/17 07:25:26;;;;;;;3.20;2.60;;;8.00;99.90;;;;;;5008596;28;20645;-79
2022/04/17 07:27:51;;;;;;;2.70;2.37;;;8.30;99.90;;;;;;5025440;28;20187;-79
2022/04/17 07:30:21;;;;;;;2.77;2.27;;;8.50;99.90;;;;;;5009666;28;20241;-78
2022/04/17 07:32:49;;;;;;;3.13;2.40;;;8.50;99.90;;;;;;5009883;28;20233;-79
2022/04/17 07:35:16;;;;;;;3.00;2.53;;;8.60;99.90;;;;;;5008566;28;20222;-78
2022/04/17 07:37:49;;;;;;;2.80;2.60;;;8.60;99.90;;;;;;5008502;28;20729;-77
2022/04/17 07:40:18;;;;;;;2.63;2.40;;;8.70;99.90;;;;;;5024321;28;20211;-78
2022/04/17 07:42:45;;;;;;;4.37;2.60;;;8.70;99.90;;;;;;5004781;28;20191;-79
2022/04/17 07:45:12;;;;;;;3.87;3.27;;;8.70;99.90;;;;;;5022679;28;20287;-79
2022/04/17 07:47:38;;;;;;;3.60;3.10;;;8.80;99.90;;;;;;5024238;28;20241;-79
2022/04/17 07:50:07;;;;;;;2.87;2.10;;;8.90;99.90;;;;;;5009001;28;20222;-78
2022/04/17 07:52:34;;;;;;;3.30;2.50;;;8.80;99.90;;;;;;5027557;28;20698;-79
2022/04/17 07:55:00;;;;;;;3.57;2.60;;;8.90;99.90;;;;;;5026431;28;20186;-79
2022/04/17 07:57:26;;;;;;;4.10;2.63;;;9.10;99.90;;;;;;5008019;28;20321;-79
2022/04/17 07:59:55;;;;;;;2.80;2.50;;;9.20;99.90;;;;;;5010769;28;20243;-79
2022/04/17 08:02:22;;;;;;;2.60;2.40;;;9.40;99.90;;;;;;5026215;28;20183;-80
2022/04/17 08:04:51;;;;;;;2.40;2.20;;;9.50;99.90;;;;;;5027366;28;20298;-80
2022/04/17 08:07:18;;;;;;;2.80;2.23;;;9.60;99.90;;;;;;5027114;28;20377;-79
2022/04/17 08:09:44;;;;;;;3.63;2.53;;;9.80;99.90;;;;;;5008234;28;20309;-78
2022/04/17 08:12:10;;;;;;;3.83;3.03;;;9.90;99.90;;;;;;5024449;28;20270;-78
2022/04/17 08:14:35;;;;;;;2.50;2.30;;;9.90;99.90;;;;;;5025076;28;20224;-78
2022/04/17 08:17:01;;;;;;;2.83;2.53;;;10.00;99.90;;;;;;5025371;28;20191;-78
2022/04/17 08:19:29;;;;;;;2.40;2.10;;;10.10;99.90;;;;;;5025734;28;20367;-79
2022/04/17 08:21:55;;;;;;;2.63;2.10;;;10.20;99.90;;;;;;5008017;28;20278;-78
2022/04/17 08:24:21;;;;;;;3.50;2.20;;;10.30;98.80;;;;;;5008188;28;20312;-79
2022/04/17 08:26:46;;;;;;;4.23;2.50;;;10.50;97.00;;;;;;5007558;28;20190;-78
2022/04/17 08:29:12;;;;;;;2.07;1.67;;;10.40;98.10;;;;;;5026567;28;20221;-79
2022/04/17 08:31:38;;;;;;;2.10;1.83;;;10.30;95.20;;;;;;5025572;28;20191;-78
2022/04/17 08:34:03;;;;;;;1.63;1.53;;;10.40;94.00;;;;;;5007134;28;20266;-79
2022/04/17 08:36:29;;;;;;;2.73;1.70;;;10.50;93.20;;;;;;5026088;28;20203;-79
2022/04/17 08:38:54;;;;;;;2.17;1.67;;;10.80;94.00;;;;;;5029832;28;20194;-79
2022/04/17 08:41:21;;;;;;;1.60;1.27;;;10.70;86.00;;;;;;5026233;28;20269;-78
2022/04/17 08:43:47;;;;;;;1.60;1.33;;;11.00;86.60;;;;;;5027944;28;20194;-78
2022/04/17 08:46:13;;;;;;;2.63;1.30;;;11.20;89.10;;;;;;5028269;28;20182;-78
2022/04/17 08:48:38;;;;;;;1.20;1.10;;;11.10;82.50;;;;;;5010582;28;20264;-80
2022/04/17 08:51:07;;;;;;;1.77;1.43;;;11.10;81.30;;;;;;5011457;28;20210;-78
2022/04/17 08:53:35;;;;;;;1.60;1.40;;;11.10;80.00;;;;;;5028250;28;20175;-79
2022/04/17 08:56:01;;;;;;;2.00;1.30;;;11.10;83.10;;;;;;5026798;28;20186;-79
2022/04/17 08:58:27;;;;;;;2.97;1.50;;;11.20;86.90;;;;;;5008538;28;20642;-79
2022/04/17 09:00:52;;;;;;;3.10;1.70;;;11.40;83.70;;;;;;5025043;28;20583;-80
2022/04/17 09:03:18;;;;;;;1.50;1.07;;;11.40;84.50;;;;;;5024841;28;20195;-79
2022/04/17 09:05:44;;;;;;;2.33;1.30;;;11.30;80.70;;;;;;5025779;28;20205;-79
2022/04/17 09:08:16;;;;;;;1.30;1.20;;;11.30;81.00;;;;;;5007593;28;20201;-79
2022/04/17 09:10:56;;;;;;;1.50;1.37;;;11.30;80.80;;;;;;5007118;28;20285;-78
2022/04/17 09:13:27;;;;;;;2.47;1.60;;;11.20;79.00;;;;;;5006480;28;20361;-79
2022/04/17 09:15:54;;;;;;;1.93;1.40;;;11.30;82.00;;;;;;5025757;28;20210;-79
2022/04/17 09:18:19;;;;;;;1.87;1.47;;;11.50;81.10;;;;;;5005972;28;20206;-78
2022/04/17 09:20:46;;;;;;;2.10;1.07;;;11.60;80.60;;;;;;5007201;28;20207;-83
2022/04/17 09:23:12;;;;;;;1.30;1.20;;;11.60;80.20;;;;;;5026424;28;20795;-79
2022/04/17 09:25:38;;;;;;;1.47;1.30;;;11.50;83.00;;;;;;5008067;28;20245;-79
2022/04/17 09:28:05;;;;;;;1.70;1.50;;;11.60;81.40;;;;;;5007746;28;20877;-80
2022/04/17 09:30:33;;;;;;;2.13;1.50;;;11.70;81.60;;;;;;5009039;28;20688;-80
2022/04/17 09:33:04;;;;;;;2.67;1.20;;;11.70;79.90;;;;;;5025810;28;20434;-80
2022/04/17 09:35:30;;;;;;;3.17;1.60;;;11.60;82.40;;;;;;5025876;28;20206;-80
2022/04/17 09:38:02;;;;;;;3.27;1.70;;;11.70;82.20;;;;;;5008078;28;20715;-81
2022/04/17 09:40:29;;;;;;;2.60;1.85;;;11.70;81.10;;;;;;5007702;28;20558;-82
2022/04/17 09:43:36;;;;;;;4.37;1.90;;;11.60;81.10;;;;;;5024503;28;20505;-82
2022/04/17 09:46:06;;;;;;;1.77;1.30;;;11.80;83.30;;;;;;4962286;28;20280;-84
2022/04/17 09:48:40;;;;;;;1.90;1.60;;;11.90;80.90;;;;;;4998809;28;20364;-85
2022/04/17 09:51:24;;;;;;;1.67;1.40;;;12.10;80.20;;;;;;5008026;28;20206;-86
2022/04/17 09:54:08;;;;;;;3.40;1.70;;;12.30;82.40;;;;;;5025917;28;20673;-81
2022/04/17 09:56:35;;;;;;;2.45;1.95;;;12.50;81.20;;;;;;5024935;28;20679;-85
2022/04/17 09:59:18;;;;;;;2.83;1.58;;;12.30;82.30;;;;;;5023541;28;20202;-83
2022/04/17 10:01:49;;;;;;;2.40;1.75;;;12.40;81.20;;;;;;5025634;28;20186;-84
2022/04/17 10:04:19;;;;;;;2.95;1.45;;;12.50;83.30;;;;;;5008004;28;20683;-82
2022/04/17 10:06:49;;;;;;;2.25;1.95;;;12.60;82.60;;;;;;5024205;28;20567;-83
2022/04/17 10:09:15;;;;;;;2.35;1.60;;;12.80;82.70;;;;;;5024515;28;20244;-82
2022/04/17 10:11:41;;;;;;;3.08;1.92;;;12.80;79.30;;;;;;5007418;28;20210;-82
2022/04/17 10:14:07;;;;;;;1.77;1.63;;;12.70;81.10;;;;;;5008296;28;20226;-84
2022/04/17 10:16:47;;;;;;;;;;;;;;;;;;;;;
2022/04/17 10:19:15;;;;;;;1.85;1.60;;;13.30;81.60;;;;;;5026009;28;20199;-82
2022/04/17 10:21:41;;;;;;;2.30;1.95;;;13.50;80.80;;;;;;5006383;28;20186;-85
2022/04/17 10:24:11;;;;;;;3.30;2.22;;;13.40;79.50;;;;;;5006845;28;20210;-83
2022/04/17 10:26:47;;;;;;;2.10;1.90;;;13.40;79.30;;;;;;5006502;28;20190;-83
2022/04/17 10:29:41;;;;;;;2.08;1.88;;;13.40;79.80;;;;;;5024464;28;20206;-84
2022/04/17 10:32:18;;;;;;;2.22;1.90;;;13.40;78.20;;;;;;5000160;28;20602;-83
2022/04/17 10:35:08;;;;;;;2.10;1.90;;;13.20;77.90;;;;;;5006378;28;20691;-82
2022/04/17 10:38:12;;;;;;;2.33;1.92;;;13.30;76.20;;;;;;5023529;28;20191;-81
2022/04/17 10:40:37;;;;;;;2.58;2.38;;;13.40;75.60;;;;;;5006004;28;20210;-81
2022/04/17 10:43:04;;;;;;;4.88;4.28;;;13.50;77.40;;;;;;5005151;28;20237;-81
2022/04/17 10:45:31;;;;;;;3.60;2.50;;;13.60;77.60;;;;;;5005750;28;20294;-82
2022/04/17 10:48:05;;;;;;;2.33;2.10;;;13.50;79.60;;;;;;5005134;28;20186;-81
2022/04/17 10:50:58;;;;;;;2.22;2.03;;;13.60;81.90;;;;;;5005662;28;20236;-83
2022/04/17 10:53:28;;;;;;;3.25;2.40;;;13.70;79.40;;;;;;5021914;28;20529;-82
2022/04/17 10:56:08;;;;;;;3.60;2.70;;;13.80;74.70;;;;;;5005250;28;20274;-82
2022/04/17 10:58:40;;;;;;;2.47;1.95;;;14.10;78.10;;;;;;5023076;28;20534;-82
2022/04/17 11:01:06;;;;;;;2.90;2.20;;;14.50;79.20;;;;;;5005737;28;20664;-82
2022/04/17 11:03:35;;;;;;;2.25;2.05;;;14.60;75.20;;;;;;5004886;28;20183;-82
2022/04/17 11:06:30;;;;;;;2.28;2.08;;;14.70;76.10;;;;;;5005510;28;20187;-82
2022/04/17 11:09:15;;;;;;;3.22;2.70;;;14.90;73.60;;;;;;5004921;28;20217;-82
2022/04/17 11:11:43;;;;;;;2.85;2.35;;;14.70;75.20;;;;;;5004932;28;20601;-82
2022/04/17 11:14:12;;;;;;;2.78;2.50;;;14.30;75.40;;;;;;5005194;28;20183;-82
2022/04/17 11:16:56;;;;;;;4.47;2.50;;;14.20;75.20;;;;;;5005496;28;20187;-81
2022/04/17 11:19:40;;;;;;;2.53;2.33;;;14.10;76.60;;;;;;5005921;28;20213;-83
2022/04/17 11:22:08;;;;;;;2.95;2.53;;;14.10;76.50;;;;;;5005017;28;20203;-81
2022/04/17 11:24:57;;;;;;;3.47;2.47;;;14.10;78.60;;;;;;5008974;28;20783;-82
2022/04/17 11:27:31;;;;;;;4.15;2.65;;;14.00;77.50;;;;;;5026336;28;20179;-82
2022/04/17 11:30:00;;;;;;;3.17;2.88;;;13.80;78.80;;;;;;5026777;28;20210;-83
2022/04/17 11:32:31;;;;;;;3.88;3.00;;;13.70;77.20;;;;;;5027494;28;20189;-84
2022/04/17 11:35:02;;;;;;;2.72;2.35;;;13.70;78.30;;;;;;5012173;28;20206;-84
2022/04/17 11:37:29;;;;;;;2.83;2.47;;;13.90;77.10;;;;;;5010046;28;20645;-81
2022/04/17 11:40:00;;;;;;;2.60;2.40;;;13.70;76.60;;;;;;5009960;28;20533;-81
2022/04/17 11:42:28;;;;;;;3.78;2.38;;;13.90;76.50;;;;;;5009317;28;20244;-82
2022/04/17 11:44:53;;;;;;;2.65;2.45;;;14.00;76.90;;;;;;5025479;28;20191;-81
2022/04/17 11:47:21;;;;;;;2.47;2.22;;;14.20;76.90;;;;;;5026385;28;20186;-82
2022/04/17 11:49:48;;;;;;;3.85;2.75;;;14.30;75.60;;;;;;5008533;28;20244;-82
2022/04/17 11:52:16;;;;;;;2.60;2.40;;;14.50;78.50;;;;;;5008258;28;20197;-85
2022/04/17 11:54:42;;;;;;;5.32;2.97;;;14.70;73.60;;;;;;5009295;28;20589;-82
2022/04/17 11:57:08;;;;;;;2.97;2.47;;;14.50;73.00;;;;;;5008598;28;20187;-85
2022/04/17 11:59:50;;;;;;;2.95;2.28;;;14.50;71.80;;;;;;5008729;28;20203;-83
2022/04/17 12:02:18;;;;;;;3.53;2.28;;;14.50;72.70;;;;;;5008420;28;20183;-82
2022/04/17 12:04:45;;;;;;;2.60;2.40;;;14.40;74.50;;;;;;5026065;28;20190;-84
2022/04/17 12:07:12;;;;;;;3.17;2.30;;;14.40;74.10;;;;;;5012611;28;20179;-82
2022/04/17 12:09:39;;;;;;;3.75;2.63;;;14.20;76.20;;;;;;5010287;28;20235;-82
2022/04/17 12:12:16;;;;;;;3.45;3.15;;;14.00;76.90;;;;;;5013314;28;20186;-82
2022/04/17 12:14:43;;;;;;;3.40;2.65;;;14.10;75.40;;;;;;5010002;28;20190;-84
2022/04/17 12:17:08;;;;;;;3.95;2.95;;;14.30;75.90;;;;;;5007925;28;20575;-84
2022/04/17 12:19:34;;;;;;;3.22;2.65;;;14.30;74.60;;;;;;5009524;28;20221;-84
2022/04/17 12:22:13;;;;;;;2.72;2.53;;;14.50;75.00;;;;;;5008148;28;20187;-84
2022/04/17 12:24:45;;;;;;;2.97;2.67;;;14.50;74.40;;;;;;5008068;28;20687;-84
2022/04/17 12:27:14;;;;;;;3.33;2.85;;;14.80;73.70;;;;;;5026400;28;20185;-85
2022/04/17 12:29:43;;;;;;;4.28;2.97;;;14.90;74.00;;;;;;5008503;28;20214;-85
2022/04/17 12:32:22;;;;;;;3.85;3.03;;;14.70;72.90;;;;;;5026131;28;20179;-84
2022/04/17 12:35:08;;;;;;;3.40;2.92;;;14.60;74.70;;;;;;5007419;28;20190;-84
2022/04/17 12:37:34;;;;;;;3.35;2.67;;;14.40;75.10;;;;;;5006320;28;20549;-84
2022/04/17 12:40:13;;;;;;;4.15;3.08;;;14.50;73.80;;;;;;5007140;28;20818;-85
2022/04/17 12:42:40;;;;;;;3.60;2.83;;;14.60;75.60;;;;;;5007509;28;20183;-87
2022/04/17 12:45:07;;;;;;;3.10;2.38;;;14.70;73.60;;;;;;5007572;28;20236;-83
2022/04/17 12:47:36;;;;;;;2.65;2.08;;;14.80;74.10;;;;;;5007218;28;20193;-84
2022/04/17 12:50:06;;;;;;;3.35;2.58;;;14.90;71.60;;;;;;5007748;28;20214;-84
2022/04/17 12:52:32;;;;;;;3.88;2.83;;;14.90;71.70;;;;;;5007732;28;20939;-83
2022/04/17 12:55:12;;;;;;;3.50;2.80;;;15.00;72.60;;;;;;5007555;28;20190;-83
2022/04/17 12:57:38;;;;;;;2.85;2.40;;;15.10;72.70;;;;;;5006448;28;20264;-83
2022/04/17 13:00:15;;;;;;;3.15;2.40;;;15.20;70.30;;;;;;5007930;28;20483;-84
2022/04/17 13:02:42;;;;;;;3.70;2.55;;;15.20;69.00;;;;;;5024496;28;20187;-83
2022/04/17 13:05:07;;;;;;;3.45;2.70;;;15.20;68.00;;;;;;5018608;28;20567;-82
2022/04/17 13:07:35;;;;;;;2.30;2.17;;;15.10;70.40;;;;;;5002496;28;20195;-83